Time;durP1;ratioP1;P1;durP2;ratioP2;P2;SDS_P1;SDS_P2;PMS_P1;PMS_P2;Temp;Humidity;BMP_temperature;BMP_pressure;BME280_temperature;BME280_humidity;BME280_pressure;Samples;Min_cycle;Max_cycle;Signal;HPM_P1;HPM_P2
2020/12/29 00:00:56;;;;;;;3.80;1.20;;;17.90;33.40;;;;;;5105905;28;20045;-68
2020/12/29 00:03:23;;;;;;;10.27;1.20;;;17.80;33.70;;;;;;5082766;28;20543;-71
2020/12/29 00:05:50;;;;;;;10.95;1.20;;;17.80;33.70;;;;;;5082985;28;20074;-69
2020/12/29 00:08:17;;;;;;;6.50;1.20;;;17.80;33.80;;;;;;5079948;28;20122;-68
2020/12/29 00:10:44;;;;;;;11.45;1.38;;;17.70;39.80;;;;;;5083893;28;20050;-68
2020/12/29 00:13:10;;;;;;;2.92;1.08;;;17.70;34.70;;;;;;5083270;28;20054;-67
2020/12/29 00:15:41;;;;;;;7.35;1.23;;;17.60;35.00;;;;;;5081097;28;20441;-69
2020/12/29 00:18:08;;;;;;;7.47;1.10;;;17.50;35.30;;;;;;5081087;28;20064;-68
2020/12/29 00:20:35;;;;;;;9.70;1.02;;;17.50;35.50;;;;;;5083397;28;20040;-68
2020/12/29 00:23:02;;;;;;;8.13;1.23;;;17.50;35.70;;;;;;5083586;28;20048;-69
2020/12/29 00:25:28;;;;;;;4.75;1.10;;;17.30;36.20;;;;;;5083508;28;20215;-68
2020/12/29 00:27:55;;;;;;;;;;;17.20;36.60;;;;;;5084500;28;20070;-68
2020/12/29 00:30:22;;;;;;;14.88;1.17;;;17.20;36.90;;;;;;5082837;28;19962;-68
2020/12/29 00:32:49;;;;;;;10.45;1.75;;;17.50;72.40;;;;;;5089222;28;20054;-68
2020/12/29 00:35:15;;;;;;;2.88;1.30;;;17.00;37.50;;;;;;5085282;28;20510;-68
2020/12/29 00:37:42;;;;;;;;;;;16.90;37.80;;;;;;5084121;28;20098;-68
2020/12/29 00:40:08;;;;;;;11.77;1.48;;;16.80;38.10;;;;;;5083617;28;19935;-67
2020/12/29 00:42:35;;;;;;;7.70;1.48;;;17.00;43.00;;;;;;5104862;28;20032;-68
2020/12/29 00:45:01;;;;;;;;;;;16.70;38.60;;;;;;5103642;28;20059;-68
2020/12/29 00:47:28;;;;;;;11.23;1.52;;;16.70;38.80;;;;;;5080481;28;20314;-67
2020/12/29 00:49:54;;;;;;;;;;;16.50;71.10;;;;;;5082942;28;20074;-67
2020/12/29 00:52:21;;;;;;;7.43;1.75;;;16.50;39.70;;;;;;5083125;28;19985;-68
2020/12/29 00:54:47;;;;;;;;;;;16.40;39.90;;;;;;5077571;28;20050;-68
2020/12/29 00:57:13;;;;;;;8.13;1.30;;;16.50;40.30;;;;;;5078176;28;19964;-67
2020/12/29 00:59:40;;;;;;;9.57;1.75;;;16.40;40.20;;;;;;5114896;27;20510;-65
2020/12/29 01:02:06;;;;;;;;;;;16.30;40.40;;;;;;5082700;28;20157;-65
2020/12/29 01:04:33;;;;;;;12.15;1.35;;;16.20;41.00;;;;;;5082036;28;19933;-65
2020/12/29 01:07:02;;;;;;;;;;;16.20;41.20;;;;;;5079768;28;20037;-64
2020/12/29 01:09:28;;;;;;;5.57;1.35;;;16.00;41.20;;;;;;5084106;28;19951;-64
2020/12/29 01:11:55;;;;;;;7.95;1.70;;;16.00;41.40;;;;;;5082516;28;20076;-63
2020/12/29 01:14:22;;;;;;;;;;;15.90;42.10;;;;;;5077300;28;20417;-64
2020/12/29 01:16:48;;;;;;;9.02;1.77;;;15.80;42.00;;;;;;5086124;28;20379;-65
2020/12/29 01:19:15;;;;;;;;;;;15.80;42.10;;;;;;5081516;28;20060;-66
2020/12/29 01:21:41;;;;;;;11.70;1.83;;;15.80;65.30;;;;;;5074889;28;20003;-67
2020/12/29 01:24:07;;;;;;;;;;;15.70;43.50;;;;;;5104388;28;20056;-67
2020/12/29 01:26:34;;;;;;;10.00;2.10;;;15.60;43.90;;;;;;5078149;28;19950;-66
2020/12/29 01:29:00;;;;;;;9.95;2.17;;;15.60;44.30;;;;;;5085581;28;20114;-66
2020/12/29 01:31:31;;;;;;;;;;;15.50;44.60;;;;;;5084789;28;20056;-66
2020/12/29 01:33:59;;;;;;;10.48;2.33;;;15.40;44.80;;;;;;5080380;28;19939;-66
2020/12/29 01:36:26;;;;;;;9.55;2.05;;;15.30;45.10;;;;;;5082253;28;20050;-68
2020/12/29 01:38:55;;;;;;;8.40;1.88;;;15.20;44.90;;;;;;5078454;28;20069;-67
2020/12/29 01:41:25;;;;;;;10.23;1.70;;;15.20;45.10;;;;;;5080117;28;20053;-69
2020/12/29 01:43:52;;;;;;;13.20;1.83;;;14.40;81.20;;;;;;5085031;28;20028;-67
2020/12/29 01:46:19;;;;;;;9.75;1.50;;;15.00;69.70;;;;;;5084349;28;20038;-65
2020/12/29 01:48:46;;;;;;;9.65;1.70;;;14.80;54.80;;;;;;5083906;28;20071;-66
2020/12/29 01:51:12;;;;;;;5.93;1.63;;;;;;;;;;5080948;28;20118;-67
2020/12/29 01:53:39;;;;;;;16.08;1.90;;;;;;;;;;5100603;28;20078;-67
2020/12/29 01:56:09;;;;;;;13.57;1.90;;;;;;;;;;5080097;28;20057;-67
2020/12/29 01:58:40;;;;;;;11.27;2.55;;;14.00;82.80;;;;;;5084683;28;20032;-67
2020/12/29 02:01:07;;;;;;;10.23;1.95;;;;;;;;;;5079858;28;20028;-67
2020/12/29 02:03:33;;;;;;;;;;;14.80;46.50;;;;;;5085472;28;20154;-66
2020/12/29 02:06:00;;;;;;;9.40;1.55;;;14.70;80.30;;;;;;5086882;28;20284;-68
2020/12/29 02:08:26;;;;;;;;;;;14.80;47.30;;;;;;5082464;28;20092;-66
2020/12/29 02:10:54;;;;;;;20.38;2.83;;;14.70;47.50;;;;;;5085945;28;20047;-67
2020/12/29 02:13:21;;;;;;;13.10;1.85;;;14.70;48.00;;;;;;5085932;28;20077;-66
2020/12/29 02:15:48;;;;;;;10.63;1.80;;;14.60;47.60;;;;;;5088888;28;20055;-68
2020/12/29 02:18:14;;;;;;;;;;;14.50;84.40;;;;;;5086747;28;20106;-66
2020/12/29 02:20:41;;;;;;;12.82;1.65;;;14.50;47.30;;;;;;5086642;28;19919;-66
2020/12/29 02:23:08;;;;;;;;;;;14.40;86.40;;;;;;5086212;28;20081;-66
2020/12/29 02:25:34;;;;;;;10.30;1.50;;;14.80;65.60;;;;;;5085929;28;20428;-67
2020/12/29 02:28:01;;;;;;;7.45;1.48;;;14.40;48.00;;;;;;5086040;28;20107;-67
2020/12/29 02:30:28;;;;;;;;;;;14.30;47.90;;;;;;5085902;28;20017;-67
2020/12/29 02:32:55;;;;;;;10.25;1.80;;;14.50;51.20;;;;;;5089580;28;19939;-67
2020/12/29 02:35:23;;;;;;;;;;;14.20;82.30;;;;;;5086169;28;20121;-68
2020/12/29 02:37:49;;;;;;;12.68;2.00;;;14.00;47.90;;;;;;5087920;28;19912;-68
2020/12/29 02:40:16;;;;;;;9.93;1.88;;;14.10;48.40;;;;;;5084738;28;20073;-69
2020/12/29 02:42:42;;;;;;;;;;;;;;;;;;5085084;28;20138;-67
2020/12/29 02:45:09;;;;;;;16.20;1.77;;;14.10;46.30;;;;;;5089223;28;19908;-66
2020/12/29 02:47:36;;;;;;;7.53;1.55;;;14.10;46.10;;;;;;5084781;28;20088;-66
2020/12/29 02:50:04;;;;;;;;;;;14.10;46.00;;;;;;5088596;28;20032;-67
2020/12/29 02:52:30;;;;;;;;;;;14.20;89.60;;;;;;5089145;28;19926;-69
2020/12/29 02:54:56;;;;;;;4.78;1.50;;;14.20;45.60;;;;;;5106814;28;20003;-67
2020/12/29 02:57:22;;;;;;;;;;;14.30;87.60;;;;;;5085175;28;20070;-67
2020/12/29 02:59:49;;;;;;;6.47;1.60;;;14.40;44.30;;;;;;5084530;28;19915;-68
2020/12/29 03:02:15;;;;;;;7.80;1.67;;;14.40;44.80;;;;;;5084359;28;20144;-66
2020/12/29 03:04:41;;;;;;;;;;;14.50;43.70;;;;;;5081602;28;20069;-66
2020/12/29 03:07:09;;;;;;;8.45;2.40;;;14.60;43.60;;;;;;5087240;28;19908;-67
2020/12/29 03:09:35;;;;;;;13.70;2.72;;;14.60;44.10;;;;;;5088450;28;20162;-67
2020/12/29 03:12:02;;;;;;;;;;;;;;;;;;5096606;28;20072;-67
2020/12/29 03:14:28;;;;;;;8.23;1.95;;;14.60;43.50;;;;;;5110287;28;19923;-68
2020/12/29 03:16:54;;;;;;;;;;;14.60;44.20;;;;;;5108584;28;20042;-67
2020/12/29 03:19:24;;;;;;;7.10;2.00;;;14.60;43.90;;;;;;5110344;28;19943;-68
2020/12/29 03:21:51;;;;;;;5.72;1.83;;;14.60;44.70;;;;;;5086884;28;20096;-67
2020/12/29 03:24:18;;;;;;;9.45;1.90;;;14.50;44.70;;;;;;5110857;28;20414;-69
2020/12/29 03:26:45;;;;;;;6.00;2.00;;;14.50;45.30;;;;;;5113243;27;20056;-67
2020/12/29 03:29:11;;;;;;;7.13;1.70;;;;;;;;;;5109561;28;20161;-68
2020/12/29 03:31:43;;;;;;;15.07;3.42;;;14.20;70.90;;;;;;5107716;28;20012;-66
2020/12/29 03:34:10;;;;;;;21.52;4.20;;;;;;;;;;5108253;28;20020;-66
2020/12/29 03:36:37;;;;;;;21.52;4.43;;;13.60;63.50;;;;;;5109209;28;20031;-65
2020/12/29 03:39:03;;;;;;;;;;;13.80;54.00;;;;;;5107427;28;20040;-66
2020/12/29 03:41:29;;;;;;;23.92;3.97;;;13.70;48.40;;;;;;5087387;28;19914;-67
2020/12/29 03:43:56;;;;;;;18.20;3.35;;;13.70;48.90;;;;;;5105728;28;20088;-67
2020/12/29 03:46:23;;;;;;;14.15;3.17;;;13.20;58.80;;;;;;5094624;28;20075;-67
2020/12/29 03:48:49;;;;;;;;;;;13.60;49.20;;;;;;5109263;28;20083;-66
2020/12/29 03:51:16;;;;;;;11.98;3.50;;;13.70;57.20;;;;;;5090985;28;19934;-66
2020/12/29 03:53:42;;;;;;;;;;;;;;;;;;5108245;28;20091;-66
2020/12/29 03:56:08;;;;;;;12.85;3.75;;;13.50;49.10;;;;;;5105551;28;20389;-66
2020/12/29 03:58:34;;;;;;;;;;;13.40;49.30;;;;;;5106071;28;20027;-66
2020/12/29 04:01:01;;;;;;;21.92;5.03;;;13.40;49.40;;;;;;5104648;28;19938;-66
2020/12/29 04:03:27;;;;;;;;;;;13.30;49.90;;;;;;5106677;28;20031;-66
2020/12/29 04:05:53;;;;;;;12.20;3.13;;;13.30;69.10;;;;;;5108968;28;19908;-66
2020/12/29 04:08:20;;;;;;;;;;;;;;;;;;5109662;28;20499;-66
2020/12/29 04:10:47;;;;;;;19.20;3.10;;;;;;;;;;5111700;28;19919;-66
2020/12/29 04:13:14;;;;;;;21.92;4.85;;;12.70;92.30;;;;;;5091891;28;20032;-66
2020/12/29 04:15:40;;;;;;;;;;;13.30;61.60;;;;;;5112705;28;20518;-68
2020/12/29 04:18:06;;;;;;;12.27;3.60;;;13.20;79.10;;;;;;5106324;28;19915;-67
2020/12/29 04:20:33;;;;;;;16.23;3.70;;;13.30;89.40;;;;;;5109662;28;20031;-67
2020/12/29 04:22:59;;;;;;;;;;;13.10;58.20;;;;;;5109830;28;20035;-66
2020/12/29 04:25:26;;;;;;;17.10;3.15;;;13.20;87.90;;;;;;5110606;27;20368;-66
2020/12/29 04:27:52;;;;;;;;;;;13.20;56.80;;;;;;5090873;28;20035;-66
2020/12/29 04:30:18;;;;;;;12.63;3.38;;;13.30;92.20;;;;;;5097843;28;19907;-67
2020/12/29 04:32:46;;;;;;;;;;;13.10;60.70;;;;;;5110435;28;20053;-69
2020/12/29 04:35:15;;;;;;;17.05;3.83;;;13.50;75.50;;;;;;5109652;28;19930;-68
2020/12/29 04:37:42;;;;;;;17.38;3.67;;;13.00;66.10;;;;;;5108079;28;20087;-68
2020/12/29 04:40:08;;;;;;;;;;;13.10;50.90;;;;;;5092558;28;20110;-66
2020/12/29 04:42:36;;;;;;;9.68;2.70;;;13.00;51.30;;;;;;5090782;28;19975;-66
2020/12/29 04:45:04;;;;;;;25.27;7.60;;;13.00;78.60;;;;;;5108581;28;20093;-67
2020/12/29 04:47:33;;;;;;;34.75;8.63;;;12.90;50.20;;;;;;5108226;28;20113;-65
2020/12/29 04:50:00;;;;;;;32.97;9.02;;;12.70;73.70;;;;;;5073755;28;20077;-66
2020/12/29 04:52:26;;;;;;;;;;;12.80;81.60;;;;;;5090558;28;20122;-66
2020/12/29 04:54:56;;;;;;;48.15;11.85;;;12.70;80.20;;;;;;5087386;28;19995;-66
2020/12/29 04:57:26;;;;;;;47.13;11.82;;;12.80;51.70;;;;;;5088830;28;20067;-66
2020/12/29 04:59:53;;;;;;;35.95;11.15;;;12.50;63.30;;;;;;5089363;28;20060;-66
2020/12/29 05:02:20;;;;;;;40.08;11.57;;;12.80;90.60;;;;;;5106954;28;20030;-66
2020/12/29 05:04:47;;;;;;;48.05;11.10;;;12.80;54.00;;;;;;5089790;28;20032;-66
2020/12/29 05:07:14;;;;;;;44.55;11.10;;;;;;;;;;5107860;28;20423;-67
2020/12/29 05:09:43;;;;;;;50.53;13.57;;;12.70;51.90;;;;;;5087697;28;20411;-66
2020/12/29 05:12:10;;;;;;;52.03;13.10;;;12.60;52.10;;;;;;5109285;28;20111;-66
2020/12/29 05:14:37;;;;;;;49.33;13.38;;;12.50;64.50;;;;;;5084848;28;20125;-66
2020/12/29 05:17:04;;;;;;;57.03;14.85;;;12.50;52.10;;;;;;5082737;28;20036;-66
2020/12/29 05:19:32;;;;;;;;;;;12.40;90.30;;;;;;5107836;28;20114;-66
2020/12/29 05:21:59;;;;;;;58.60;14.23;;;12.30;52.80;;;;;;5107197;28;19951;-66
2020/12/29 05:24:26;;;;;;;61.38;15.02;;;12.30;53.40;;;;;;5108343;28;20060;-66
2020/12/29 05:26:56;;;;;;;;;;;12.30;53.60;;;;;;5089789;28;20104;-66
2020/12/29 05:29:24;;;;;;;36.40;10.63;;;12.20;53.80;;;;;;5106103;28;19971;-66
2020/12/29 05:31:51;;;;;;;27.50;9.70;;;12.20;54.30;;;;;;5106589;28;20057;-66
2020/12/29 05:34:29;;;;;;;22.10;6.80;;;12.10;54.40;;;;;;5108492;28;20439;-66
2020/12/29 05:36:57;;;;;;;26.50;8.63;;;12.10;54.80;;;;;;5104672;28;20062;-67
2020/12/29 05:39:26;;;;;;;28.73;8.50;;;12.20;55.20;;;;;;5106668;28;20051;-66
2020/12/29 05:41:56;;;;;;;23.98;7.03;;;12.20;55.40;;;;;;5104342;28;20503;-66
2020/12/29 05:44:32;;;;;;;22.23;6.35;;;12.20;55.80;;;;;;5089248;28;20063;-67
2020/12/29 05:47:03;;;;;;;16.73;5.28;;;12.20;56.50;;;;;;5105311;28;20149;-66
2020/12/29 05:49:32;;;;;;;22.30;5.85;;;12.20;56.70;;;;;;5087255;28;20094;-66
2020/12/29 05:52:00;;;;;;;26.15;6.45;;;12.20;56.30;;;;;;5085908;28;20061;-66
2020/12/29 05:54:27;;;;;;;17.83;5.30;;;12.20;56.30;;;;;;5104211;28;20547;-66
2020/12/29 05:56:55;;;;;;;26.98;5.93;;;12.10;56.30;;;;;;5103110;28;20586;-66
2020/12/29 05:59:22;;;;;;;17.02;5.00;;;12.10;56.70;;;;;;5084123;28;20526;-66
2020/12/29 06:01:53;;;;;;;19.42;4.93;;;12.10;57.50;;;;;;5106631;28;20061;-67
2020/12/29 06:04:21;;;;;;;13.18;3.80;;;12.10;58.30;;;;;;5108044;28;20473;-66
2020/12/29 06:06:49;;;;;;;22.17;4.63;;;12.00;58.70;;;;;;5104387;28;20058;-65
2020/12/29 06:09:17;;;;;;;33.25;7.65;;;12.10;58.20;;;;;;5104671;28;20540;-69
2020/12/29 06:11:50;;;;;;;37.33;9.73;;;12.10;57.20;;;;;;5106311;28;20063;-67
2020/12/29 06:14:22;;;;;;;41.92;10.68;;;12.10;56.50;;;;;;5092509;28;20081;-67
2020/12/29 06:16:48;;;;;;;55.60;11.77;;;12.20;56.50;;;;;;5086157;28;20069;-67
2020/12/29 06:19:45;;;;;;;51.53;11.68;;;12.20;56.50;;;;;;5085004;28;20473;-66
2020/12/29 06:22:12;;;;;;;45.38;11.45;;;12.10;56.10;;;;;;5102817;28;20119;-66
2020/12/29 06:24:47;;;;;;;43.80;11.55;;;12.00;57.00;;;;;;5105916;28;20405;-66
2020/12/29 06:27:14;;;;;;;41.45;12.20;;;12.10;56.70;;;;;;5105609;28;20059;-68
2020/12/29 06:29:41;;;;;;;;;;;12.10;56.40;;;;;;5103044;28;20163;-66
2020/12/29 06:32:14;;;;;;;45.28;12.40;;;12.20;56.70;;;;;;5104688;28;20468;-65
2020/12/29 06:34:43;;;;;;;40.70;11.85;;;12.30;56.60;;;;;;5106391;28;20183;-67
2020/12/29 06:37:23;;;;;;;49.92;11.55;;;12.30;57.40;;;;;;5105097;28;20066;-67
2020/12/29 06:39:54;;;;;;;49.33;11.25;;;12.40;57.80;;;;;;5104518;28;20052;-66
2020/12/29 06:42:20;;;;;;;48.63;11.70;;;12.50;57.80;;;;;;5109945;28;20546;-67
2020/12/29 06:44:57;;;;;;;51.00;11.93;;;12.50;57.50;;;;;;5105108;28;20067;-67
2020/12/29 06:47:25;;;;;;;39.63;12.48;;;12.60;57.60;;;;;;5080623;28;20099;-65
2020/12/29 06:49:53;;;;;;;54.50;11.95;;;12.60;57.70;;;;;;5081358;28;20069;-66
2020/12/29 06:52:26;;;;;;;53.40;13.07;;;12.50;57.70;;;;;;5067091;28;20072;-66
2020/12/29 06:55:00;;;;;;;48.10;15.80;;;12.40;57.70;;;;;;5083711;28;20079;-66
2020/12/29 06:57:36;;;;;;;58.50;19.55;;;12.40;57.20;;;;;;5067983;28;20062;-65
2020/12/29 07:00:17;;;;;;;51.33;16.83;;;12.40;57.00;;;;;;5069627;28;20105;-66
2020/12/29 07:02:48;;;;;;;56.83;15.35;;;12.30;56.70;;;;;;5085470;28;20069;-67
2020/12/29 07:05:25;;;;;;;59.97;17.38;;;12.30;56.80;;;;;;5070561;28;20155;-66
2020/12/29 07:08:03;;;;;;;79.97;19.35;;;12.20;56.90;;;;;;5068038;28;20171;-68
2020/12/29 07:10:41;;;;;;;;;;;12.20;57.10;;;;;;5084890;28;20562;-66
2020/12/29 07:13:18;;;;;;;62.38;19.52;;;12.20;57.40;;;;;;5090642;28;19958;-67
2020/12/29 07:15:44;;;;;;;;;;;12.10;57.10;;;;;;5089314;28;20403;-66
2020/12/29 07:18:11;;;;;;;67.60;21.65;;;12.10;56.70;;;;;;5080695;28;20003;-66
2020/12/29 07:20:40;;;;;;;90.72;23.02;;;12.20;56.70;;;;;;5083280;28;20564;-68
2020/12/29 07:23:08;;;;;;;73.82;24.13;;;12.20;57.60;;;;;;5090610;28;20071;-67
2020/12/29 07:25:36;;;;;;;94.80;25.42;;;12.10;56.50;;;;;;5083217;28;20542;-68
2020/12/29 07:28:07;;;;;;;93.47;26.50;;;12.10;56.20;;;;;;5068613;28;20100;-67
2020/12/29 07:30:35;;;;;;;104.03;23.63;;;12.20;56.10;;;;;;5087463;28;20054;-67
2020/12/29 07:33:06;;;;;;;108.50;25.70;;;12.20;55.60;;;;;;5084078;28;20067;-69
2020/12/29 07:35:35;;;;;;;116.80;27.17;;;12.20;55.60;;;;;;5069220;28;20106;-67
2020/12/29 07:38:15;;;;;;;90.97;28.65;;;12.20;55.10;;;;;;5068612;28;20083;-67
2020/12/29 07:40:42;;;;;;;110.13;26.23;;;12.20;55.30;;;;;;5067915;28;20163;-72
2020/12/29 07:43:09;;;;;;;106.45;28.70;;;12.10;55.20;;;;;;5084862;28;20072;-68
2020/12/29 07:45:36;;;;;;;95.32;26.50;;;12.10;55.20;;;;;;5088220;28;20552;-68
2020/12/29 07:48:04;;;;;;;80.25;26.08;;;12.00;55.60;;;;;;5085736;28;20116;-70
2020/12/29 07:50:33;;;;;;;84.10;25.33;;;12.00;55.60;;;;;;5070356;28;20657;-68
2020/12/29 07:53:03;;;;;;;83.53;24.13;;;11.90;55.60;;;;;;5072306;28;20088;-69
2020/12/29 07:55:30;;;;;;;68.07;19.75;;;11.90;55.70;;;;;;5090974;28;20063;-70
2020/12/29 07:58:00;;;;;;;;;;;11.80;55.80;;;;;;5071756;28;20183;-68
2020/12/29 08:00:26;;;;;;;55.05;16.92;;;11.80;56.20;;;;;;5071109;28;20330;-68
2020/12/29 08:02:53;;;;;;;;;;;11.70;56.40;;;;;;5074107;28;20084;-68
2020/12/29 08:05:21;;;;;;;49.92;15.20;;;11.70;56.50;;;;;;5074502;28;19948;-69
2020/12/29 08:08:05;;;;;;;52.17;15.65;;;11.70;56.60;;;;;;5073594;28;20483;-68
2020/12/29 08:10:44;;;;;;;51.05;14.65;;;11.80;56.70;;;;;;5093975;28;20089;-66
2020/12/29 08:13:14;;;;;;;40.50;14.25;;;11.80;56.70;;;;;;5093316;28;20066;-67
2020/12/29 08:15:42;;;;;;;48.00;14.15;;;11.80;56.80;;;;;;5073917;28;20076;-68
2020/12/29 08:18:20;;;;;;;51.70;15.02;;;11.80;56.50;;;;;;5073484;28;20062;-66
2020/12/29 08:20:52;;;;;;;45.40;15.45;;;11.80;56.90;;;;;;5074656;28;20449;-67
2020/12/29 08:23:21;;;;;;;45.55;15.63;;;11.90;57.10;;;;;;5074221;28;20065;-67
2020/12/29 08:25:55;;;;;;;54.05;16.50;;;11.90;56.50;;;;;;5093742;28;20062;-68
2020/12/29 08:28:26;;;;;;;56.05;16.05;;;11.90;56.00;;;;;;5075665;28;20088;-67
2020/12/29 08:30:57;;;;;;;52.20;13.88;;;11.90;56.10;;;;;;5074424;28;20061;-67
2020/12/29 08:33:25;;;;;;;34.30;12.07;;;12.00;56.20;;;;;;5076845;28;20080;-68
2020/12/29 08:35:55;;;;;;;39.08;13.23;;;12.10;55.80;;;;;;5074814;28;20077;-67
2020/12/29 08:38:30;;;;;;;42.42;13.25;;;12.00;55.60;;;;;;5093252;28;20194;-66
2020/12/29 08:41:03;;;;;;;44.90;14.40;;;12.00;55.50;;;;;;5073539;28;20058;-67
2020/12/29 08:43:30;;;;;;;40.95;13.80;;;12.00;55.70;;;;;;5075608;28;20092;-65
2020/12/29 08:46:08;;;;;;;53.03;15.98;;;12.10;55.80;;;;;;5074708;28;20063;-67
2020/12/29 08:48:35;;;;;;;53.28;17.05;;;12.10;56.00;;;;;;5108124;28;20128;-67
2020/12/29 08:51:26;;;;;;;56.42;17.23;;;12.00;55.50;;;;;;5100953;28;20074;-66
2020/12/29 08:54:16;;;;;;;51.13;17.85;;;12.00;55.40;;;;;;5085611;28;20069;-67
2020/12/29 08:56:44;;;;;;;48.38;16.92;;;12.00;55.60;;;;;;5102134;28;20569;-67
2020/12/29 08:59:22;;;;;;;45.72;16.92;;;12.00;55.60;;;;;;5123280;27;20069;-65
2020/12/29 09:02:01;;;;;;;53.28;17.58;;;12.10;55.70;;;;;;5117853;27;20434;-66
2020/12/29 09:04:34;;;;;;;40.67;16.20;;;12.10;55.60;;;;;;5097795;27;20407;-66
2020/12/29 09:07:06;;;;;;;56.50;16.65;;;12.00;55.70;;;;;;5094753;27;20061;-66
2020/12/29 09:10:07;;;;;;;48.40;15.68;;;12.10;55.60;;;;;;5109503;27;20087;-66
2020/12/29 09:12:35;;;;;;;49.50;16.45;;;12.10;56.10;;;;;;5093445;28;20068;-68
2020/12/29 09:15:08;;;;;;;48.78;14.07;;;12.10;55.80;;;;;;5109730;27;20068;-68
2020/12/29 09:17:40;;;;;;;34.83;12.55;;;12.00;55.60;;;;;;5097546;28;20056;-67
2020/12/29 09:20:25;;;;;;;30.92;11.15;;;12.10;55.90;;;;;;5097757;28;20071;-68
2020/12/29 09:23:09;;;;;;;28.70;9.43;;;12.10;55.80;;;;;;5099791;28;20059;-67
2020/12/29 09:25:37;;;;;;;31.77;8.95;;;12.10;55.90;;;;;;5100496;28;20072;-67
2020/12/29 09:28:11;;;;;;;24.08;7.53;;;12.10;56.00;;;;;;5095224;28;20080;-66
2020/12/29 09:30:39;;;;;;;24.88;7.20;;;12.00;55.70;;;;;;5108698;28;20066;-69
2020/12/29 09:33:06;;;;;;;28.02;9.85;;;12.00;55.70;;;;;;5094803;28;20589;-67
2020/12/29 09:35:33;;;;;;;27.58;10.80;;;12.00;56.00;;;;;;5077645;28;20073;-66
2020/12/29 09:38:01;;;;;;;36.55;10.50;;;11.90;56.70;;;;;;5111573;28;20072;-67
2020/12/29 09:40:29;;;;;;;40.72;9.93;;;11.90;57.10;;;;;;5105870;27;20066;-67
2020/12/29 09:42:56;;;;;;;29.95;8.75;;;11.90;57.60;;;;;;5092929;28;20071;-67
2020/12/29 09:45:26;;;;;;;25.02;6.78;;;11.90;57.80;;;;;;5079280;28;20540;-69
2020/12/29 09:47:53;;;;;;;26.33;5.60;;;11.90;57.60;;;;;;5099688;28;20113;-67
2020/12/29 09:50:19;;;;;;;;;;;11.90;57.60;;;;;;5093330;28;20409;-66
2020/12/29 09:52:46;;;;;;;18.20;5.45;;;11.90;57.50;;;;;;5092261;28;19948;-68
2020/12/29 09:55:13;;;;;;;23.77;4.90;;;12.00;57.90;;;;;;5090876;28;20081;-69
2020/12/29 09:57:41;;;;;;;17.30;4.57;;;12.00;58.00;;;;;;5110050;28;20111;-68
2020/12/29 10:00:08;;;;;;;20.65;5.15;;;12.10;58.00;;;;;;5099548;28;20065;-67
2020/12/29 10:02:35;;;;;;;21.17;5.85;;;12.10;58.00;;;;;;5093439;28;20129;-69
2020/12/29 10:05:02;;;;;;;19.67;5.70;;;12.00;58.20;;;;;;5092333;28;20073;-68
2020/12/29 10:07:28;;;;;;;15.55;4.65;;;12.00;58.40;;;;;;5093467;28;20068;-66
2020/12/29 10:09:55;;;;;;;15.80;3.97;;;12.00;58.40;;;;;;5093690;28;20086;-67
2020/12/29 10:12:21;;;;;;;;;;;11.90;59.10;;;;;;5096393;28;20060;-67
2020/12/29 10:14:48;;;;;;;19.08;3.75;;;11.90;58.80;;;;;;5098287;28;19957;-68
2020/12/29 10:17:14;;;;;;;;;;;12.00;58.80;;;;;;5094326;28;20457;-68
2020/12/29 10:19:41;;;;;;;10.95;3.30;;;12.00;58.40;;;;;;5097392;28;19984;-67
2020/12/29 10:22:07;;;;;;;;;;;11.90;58.70;;;;;;5113247;28;20074;-67
2020/12/29 10:24:33;;;;;;;20.88;4.10;;;11.90;60.10;;;;;;5108980;28;19956;-66
2020/12/29 10:26:59;;;;;;;;;;;12.00;61.30;;;;;;5087957;28;20064;-69
2020/12/29 10:29:26;;;;;;;14.48;4.22;;;11.90;61.50;;;;;;5097219;28;20029;-66
2020/12/29 10:31:52;;;;;;;;;;;11.90;62.90;;;;;;5111869;28;20057;-66
2020/12/29 10:34:19;;;;;;;12.50;4.30;;;11.90;63.40;;;;;;5107203;28;20064;-67
2020/12/29 10:36:46;;;;;;;;;;;11.80;63.40;;;;;;5104611;28;20062;-66
2020/12/29 10:39:13;;;;;;;15.65;4.60;;;11.90;63.40;;;;;;5112071;28;19957;-66
2020/12/29 10:41:42;;;;;;;18.10;4.22;;;11.80;63.00;;;;;;5110811;28;20163;-66
2020/12/29 10:44:09;;;;;;;13.23;4.60;;;11.80;65.10;;;;;;5121161;27;20610;-67
2020/12/29 10:46:37;;;;;;;15.93;4.82;;;11.70;66.20;;;;;;5110082;27;20078;-66
2020/12/29 10:49:04;;;;;;;17.45;4.32;;;11.70;66.90;;;;;;5113341;28;20113;-67
2020/12/29 10:51:31;;;;;;;16.85;4.13;;;11.60;66.80;;;;;;5112969;28;20060;-66
2020/12/29 10:53:58;;;;;;;11.20;4.10;;;11.70;68.00;;;;;;5112370;27;20512;-67
2020/12/29 10:56:25;;;;;;;21.27;4.28;;;11.70;68.10;;;;;;5112003;28;20181;-67
2020/12/29 10:58:51;;;;;;;;;;;11.70;68.40;;;;;;5112648;28;20199;-67
2020/12/29 11:01:23;;;;;;;16.58;4.50;;;11.70;68.10;;;;;;5101233;28;19989;-66
2020/12/29 11:03:51;;;;;;;16.42;5.05;;;11.70;68.80;;;;;;5114365;27;20056;-67
2020/12/29 11:06:20;;;;;;;18.42;4.78;;;11.70;69.30;;;;;;5099056;28;20432;-67
2020/12/29 11:08:48;;;;;;;16.83;4.93;;;11.50;68.40;;;;;;5111621;27;20089;-67
2020/12/29 11:11:15;;;;;;;14.57;5.25;;;11.60;69.10;;;;;;5109952;28;20148;-66
2020/12/29 11:13:43;;;;;;;14.82;5.03;;;11.60;69.90;;;;;;5110692;28;20059;-67
2020/12/29 11:16:16;;;;;;;12.20;4.30;;;11.60;68.50;;;;;;5110343;28;20065;-66
2020/12/29 11:18:44;;;;;;;16.25;4.90;;;11.60;67.40;;;;;;5104561;28;20469;-66
2020/12/29 11:21:11;;;;;;;12.32;4.70;;;11.60;67.70;;;;;;5108856;28;20520;-67
2020/12/29 11:23:38;;;;;;;24.92;5.30;;;11.60;68.10;;;;;;5112498;27;20077;-67
2020/12/29 11:26:05;;;;;;;26.65;5.13;;;11.60;68.50;;;;;;5111347;28;20519;-67
2020/12/29 11:28:31;;;;;;;18.95;4.70;;;11.70;68.90;;;;;;5110423;27;20555;-68
2020/12/29 11:30:58;;;;;;;21.85;5.60;;;11.70;69.50;;;;;;5112191;28;20060;-67
2020/12/29 11:33:24;;;;;;;;;;;11.70;69.60;;;;;;5111466;27;20065;-67
2020/12/29 11:35:51;;;;;;;19.83;4.95;;;11.70;70.00;;;;;;5116029;27;19992;-67
2020/12/29 11:38:21;;;;;;;16.50;5.03;;;11.70;70.40;;;;;;5111844;27;20069;-67
2020/12/29 11:40:49;;;;;;;18.48;5.15;;;11.70;71.40;;;;;;5110078;28;20428;-66
2020/12/29 11:43:16;;;;;;;11.50;4.28;;;11.70;72.90;;;;;;5109455;27;20465;-66
2020/12/29 11:45:42;;;;;;;;;;;11.70;75.70;;;;;;5110627;28;20551;-66
2020/12/29 11:48:09;;;;;;;14.13;4.10;;;11.70;77.30;;;;;;5112060;27;20088;-66
2020/12/29 11:50:36;;;;;;;8.48;3.75;;;11.70;78.40;;;;;;5105250;27;20977;-67
2020/12/29 11:53:02;;;;;;;7.75;3.38;;;11.70;78.90;;;;;;5098632;28;20069;-67
2020/12/29 11:55:28;;;;;;;;;;;11.70;79.40;;;;;;5108179;27;20518;-66
2020/12/29 11:57:55;;;;;;;12.30;4.30;;;11.70;77.80;;;;;;5111487;27;19949;-66
2020/12/29 12:00:23;;;;;;;;;;;11.70;77.40;;;;;;5107827;28;20394;-66
2020/12/29 12:02:49;;;;;;;9.63;3.40;;;11.70;79.40;;;;;;5096726;28;19978;-67
2020/12/29 12:05:16;;;;;;;;;;;11.70;81.30;;;;;;5103788;28;20098;-66
2020/12/29 12:07:42;;;;;;;12.50;3.00;;;11.60;82.40;;;;;;5104602;28;19956;-66
2020/12/29 12:10:08;;;;;;;;;;;11.50;83.90;;;;;;5109708;28;20154;-66
2020/12/29 12:12:36;;;;;;;5.95;2.90;;;11.60;85.20;;;;;;5092826;28;20330;-67
2020/12/29 12:15:04;;;;;;;8.50;3.00;;;11.60;85.50;;;;;;5108003;27;20070;-65
2020/12/29 12:17:31;;;;;;;10.38;3.10;;;11.50;86.20;;;;;;5100128;28;20063;-67
2020/12/29 12:19:57;;;;;;;;;;;11.50;86.90;;;;;;5103940;28;20056;-67
2020/12/29 12:22:24;;;;;;;7.65;3.40;;;11.50;87.10;;;;;;5108066;27;19948;-67
2020/12/29 12:24:50;;;;;;;7.10;3.10;;;11.50;87.10;;;;;;5095779;27;20062;-67
2020/12/29 12:27:16;;;;;;;;;;;11.60;87.40;;;;;;5105112;27;20079;-67
2020/12/29 12:29:43;;;;;;;9.07;3.75;;;11.50;88.20;;;;;;5103806;27;19972;-67
2020/12/29 12:32:10;;;;;;;9.45;3.35;;;11.50;87.40;;;;;;5108987;27;20057;-67
2020/12/29 12:34:37;;;;;;;9.02;3.83;;;11.50;87.10;;;;;;5109103;28;20074;-67
2020/12/29 12:37:04;;;;;;;7.10;3.20;;;11.40;87.40;;;;;;5107981;28;20432;-67
2020/12/29 12:39:31;;;;;;;9.07;3.63;;;11.40;87.50;;;;;;5111664;28;20068;-66
2020/12/29 12:41:57;;;;;;;8.57;3.75;;;11.40;87.50;;;;;;5101058;28;20071;-65
2020/12/29 12:44:24;;;;;;;;;;;11.40;87.40;;;;;;5092430;27;20477;-68
2020/12/29 12:46:50;;;;;;;10.98;3.92;;;11.40;86.90;;;;;;5125804;27;19948;-67
2020/12/29 12:49:16;;;;;;;;;;;11.30;86.90;;;;;;5109249;28;20089;-67
2020/12/29 12:51:47;;;;;;;13.20;4.05;;;11.30;87.00;;;;;;5107858;27;20019;-67
2020/12/29 12:54:15;;;;;;;17.60;5.18;;;11.30;87.70;;;;;;5105568;27;20072;-66
2020/12/29 12:56:43;;;;;;;28.38;10.65;;;11.20;87.00;;;;;;5107864;28;20107;-67
2020/12/29 12:59:13;;;;;;;24.65;10.57;;;11.20;85.40;;;;;;5108410;27;20097;-66
2020/12/29 13:01:40;;;;;;;27.15;10.73;;;11.10;83.80;;;;;;5108671;28;20460;-66
2020/12/29 13:04:06;;;;;;;22.92;11.73;;;11.10;82.90;;;;;;5109407;28;20077;-67